Colton, California
Current Conditions -  °F | °C
As of 8:45 PM on Thursday 30 Oct 2014 (Local Time) from KSBD Reporting Station
Broken Clouds Broken Clouds  
Wind Chill: 66°   Ceiling: 15000
Heat Index: 66°   Visibility: 10mi
Dew Point: 54°   Wind: 7mph
Humidity: 64%   Direction: 250°WSW
Pressure: 29.97"   Gusts: NA
Location:  34.07°N, 117.32°W
Report Text: KSBD 310345Z 25006KT 10SM BKN150 19/12 A2997
Loading
Personal Weather Stations






























Interactive Weather Map
Tropical Storm Tracking
New forecast layout! Learn more

10-Day Weather Forecast

Advertisements
Track Severe Weather on mobile